Time;durP1;ratioP1;P1;durP2;ratioP2;P2;SDS_P1;SDS_P2;PMS_P1;PMS_P2;Temp;Humidity;BMP_temperature;BMP_pressure;BME280_temperature;BME280_humidity;BME280_pressure;Samples;Min_cycle;Max_cycle;Signal;HPM_P1;HPM_P2
2021/08/27 00:00:12;;;;;;;9.40;8.43;;;18.40;99.90;;;;;;6221050;23;20327;-93
2021/08/27 00:02:37;;;;;;;10.80;8.32;;;18.40;99.90;;;;;;6220609;23;20008;-92
2021/08/27 00:05:04;;;;;;;8.95;8.05;;;18.40;99.90;;;;;;6220997;23;20376;-92
2021/08/27 00:07:30;;;;;;;9.70;8.70;;;18.40;99.90;;;;;;6247900;23;20019;-93
2021/08/27 00:09:56;;;;;;;13.27;10.60;;;18.50;99.90;;;;;;6221773;23;20015;-93
2021/08/27 00:12:21;;;;;;;10.95;8.70;;;18.40;99.90;;;;;;6221063;23;20332;-92
2021/08/27 00:14:47;;;;;;;10.52;9.23;;;18.40;99.90;;;;;;6220976;23;20374;-93
2021/08/27 00:17:13;;;;;;;11.75;9.25;;;18.30;99.90;;;;;;6220756;23;20008;-92
2021/08/27 00:19:38;;;;;;;10.60;9.50;;;18.30;99.90;;;;;;6220751;23;20088;-93
2021/08/27 00:22:04;;;;;;;11.07;9.98;;;18.30;99.90;;;;;;6220858;23;20004;-93
2021/08/27 00:24:30;;;;;;;10.73;9.73;;;18.20;99.90;;;;;;6220954;23;20016;-93
2021/08/27 00:26:55;;;;;;;10.93;9.93;;;18.20;99.90;;;;;;6221039;23;20443;-92
2021/08/27 00:29:21;;;;;;;12.57;11.23;;;18.10;99.90;;;;;;6247658;23;20000;-93
2021/08/27 00:31:47;;;;;;;13.43;12.00;;;18.10;99.90;;;;;;6221006;23;20000;-93
2021/08/27 00:34:12;;;;;;;12.05;10.68;;;18.00;99.90;;;;;;6220931;23;20012;-93
2021/08/27 00:36:38;;;;;;;13.20;10.52;;;18.00;99.90;;;;;;6221045;23;20000;-92
2021/08/27 00:39:04;;;;;;;11.20;10.00;;;18.00;99.90;;;;;;6247897;23;20000;-93
2021/08/27 00:41:30;;;;;;;10.75;9.70;;;17.90;99.90;;;;;;6221069;23;20008;-93
2021/08/27 00:43:56;;;;;;;12.00;10.27;;;17.90;99.90;;;;;;6247689;23;19997;-93
2021/08/27 00:46:21;;;;;;;9.80;8.80;;;17.90;99.90;;;;;;6220617;23;20023;-93
2021/08/27 00:48:47;;;;;;;10.13;8.93;;;17.90;99.90;;;;;;6220838;23;20019;-92
2021/08/27 00:51:13;;;;;;;9.88;8.85;;;17.90;99.90;;;;;;6247517;23;20039;-93
2021/08/27 00:53:39;;;;;;;9.07;8.15;;;17.90;99.90;;;;;;6220533;23;20009;-93
2021/08/27 00:56:04;;;;;;;11.02;9.93;;;17.90;99.90;;;;;;6220539;23;20024;-92
2021/08/27 00:58:30;;;;;;;9.90;8.90;;;17.90;99.90;;;;;;6247304;23;20000;-92
2021/08/27 01:00:57;;;;;;;10.15;9.07;;;17.90;99.90;;;;;;6246301;23;20009;-93
2021/08/27 01:03:24;;;;;;;9.88;8.88;;;17.80;99.90;;;;;;6249434;23;20316;-92
2021/08/27 01:06:03;;;;;;;10.07;9.10;;;17.80;99.90;;;;;;6252222;23;20064;-92
2021/08/27 01:08:37;;;;;;;9.27;8.27;;;17.80;99.90;;;;;;6253279;23;20034;-93
2021/08/27 01:11:08;;;;;;;;;;;17.80;99.90;;;;;;6257481;23;20003;-93
2021/08/27 01:13:58;;;;;;;8.25;6.95;;;17.70;99.90;;;;;;6281022;22;19973;-92
2021/08/27 01:16:28;;;;;;;7.68;6.88;;;17.70;99.90;;;;;;6254737;23;20008;-92
2021/08/27 01:19:23;;;;;;;8.10;6.93;;;17.70;99.90;;;;;;6249697;23;20390;-93
2021/08/27 01:22:12;;;;;;;10.55;7.15;;;17.70;99.90;;;;;;6247932;23;20004;-92
2021/08/27 01:24:42;;;;;;;8.63;7.60;;;17.70;99.90;;;;;;6247863;23;20039;-92
2021/08/27 01:27:11;;;;;;;9.07;8.18;;;17.70;99.90;;;;;;6248274;23;20011;-92
2021/08/27 01:30:01;;;;;;;11.60;7.72;;;17.70;99.90;;;;;;6249280;23;20000;-92
2021/08/27 01:32:46;;;;;;;9.05;8.15;;;17.70;99.90;;;;;;6222500;23;20339;-92
2021/08/27 01:35:13;;;;;;;10.05;8.38;;;17.70;99.90;;;;;;6222813;23;20004;-93
2021/08/27 01:37:47;;;;;;;8.57;7.78;;;17.70;99.90;;;;;;6222348;23;20087;-93
2021/08/27 01:40:15;;;;;;;7.47;6.70;;;17.60;99.90;;;;;;6249393;23;20007;-93
2021/08/27 01:42:42;;;;;;;8.10;7.30;;;17.70;99.90;;;;;;6222315;23;20007;-93
2021/08/27 01:45:09;;;;;;;7.72;6.50;;;17.70;99.90;;;;;;6248990;23;20008;-92
2021/08/27 01:47:36;;;;;;;9.70;8.38;;;17.70;99.90;;;;;;6221437;23;20018;-93
2021/08/27 01:50:04;;;;;;;9.15;8.18;;;17.60;99.90;;;;;;6249144;23;20000;-92
2021/08/27 01:52:32;;;;;;;8.48;7.57;;;17.70;99.90;;;;;;6223036;23;20008;-92
2021/08/27 01:54:58;;;;;;;10.43;9.38;;;17.60;99.90;;;;;;6248660;23;20000;-92
2021/08/27 01:57:26;;;;;;;9.63;8.05;;;17.60;99.90;;;;;;6248971;23;20012;-92
2021/08/27 01:59:51;;;;;;;8.52;7.63;;;17.60;99.90;;;;;;6221765;23;20060;-92
2021/08/27 02:02:19;;;;;;;9.25;8.35;;;17.60;99.90;;;;;;6222966;23;20027;-93
2021/08/27 02:04:50;;;;;;;10.38;8.63;;;17.60;99.90;;;;;;6221845;23;20015;-92
2021/08/27 02:07:16;;;;;;;12.10;10.48;;;17.60;99.90;;;;;;6247694;23;20007;-93
2021/08/27 02:09:43;;;;;;;10.95;9.85;;;17.50;99.90;;;;;;6222369;23;20004;-92
2021/08/27 02:12:09;;;;;;;10.77;9.68;;;17.50;99.90;;;;;;6222025;23;20050;-93
2021/08/27 02:14:38;;;;;;;10.05;8.25;;;17.50;99.90;;;;;;6248375;23;20004;-92
2021/08/27 02:17:07;;;;;;;9.20;8.18;;;17.50;99.90;;;;;;6222168;23;20461;-92
2021/08/27 02:19:33;;;;;;;8.70;7.80;;;17.40;99.90;;;;;;6222064;23;20004;-92
2021/08/27 02:22:00;;;;;;;9.13;7.93;;;17.40;99.90;;;;;;6221425;23;20023;-93
2021/08/27 02:24:35;;;;;;;7.18;6.47;;;17.40;99.90;;;;;;6248507;23;19992;-93
2021/08/27 02:27:04;;;;;;;9.05;8.07;;;17.40;99.90;;;;;;6248356;23;20126;-92
2021/08/27 02:29:33;;;;;;;9.55;7.40;;;17.40;99.90;;;;;;6248545;23;20032;-92
2021/08/27 02:32:02;;;;;;;8.88;7.97;;;17.30;99.90;;;;;;6221535;23;20011;-92
2021/08/27 02:34:31;;;;;;;9.35;8.30;;;17.30;99.90;;;;;;6248568;23;19996;-92
2021/08/27 02:36:58;;;;;;;11.40;7.38;;;17.30;99.90;;;;;;6246790;22;20003;-92
2021/08/27 02:39:27;;;;;;;7.95;6.93;;;17.30;99.90;;;;;;6248653;23;20054;-92
2021/08/27 02:41:53;;;;;;;9.00;7.35;;;17.30;99.90;;;;;;6222338;23;20095;-92
2021/08/27 02:44:19;;;;;;;8.02;7.20;;;17.30;99.90;;;;;;6221799;23;20028;-92
2021/08/27 02:46:45;;;;;;;9.75;7.80;;;17.30;99.90;;;;;;6247011;23;20047;-92
2021/08/27 02:49:11;;;;;;;9.70;8.32;;;17.30;99.90;;;;;;6233292;23;20016;-92
2021/08/27 02:51:46;;;;;;;10.20;8.65;;;17.20;99.90;;;;;;6268045;23;20070;-92
2021/08/27 02:54:16;;;;;;;8.35;7.45;;;17.20;99.90;;;;;;6234216;23;20008;-92
2021/08/27 02:56:44;;;;;;;9.88;7.95;;;17.20;99.90;;;;;;6249733;23;19996;-91
2021/08/27 02:59:13;;;;;;;9.20;8.13;;;17.20;99.90;;;;;;6248566;23;20040;-92
2021/08/27 03:01:50;;;;;;;10.55;9.15;;;17.20;99.90;;;;;;6246611;23;20356;-92
2021/08/27 03:04:25;;;;;;;10.60;9.20;;;17.20;99.90;;;;;;6222489;23;20020;-92
2021/08/27 03:07:05;;;;;;;11.82;9.65;;;17.20;99.90;;;;;;6248380;23;20002;-92
2021/08/27 03:09:41;;;;;;;10.98;9.30;;;17.20;99.90;;;;;;6222822;23;20039;-92
2021/08/27 03:12:10;;;;;;;13.73;10.05;;;17.20;99.90;;;;;;6222002;23;20481;-92
2021/08/27 03:14:41;;;;;;;14.02;10.75;;;17.20;99.90;;;;;;6248544;23;20008;-92
2021/08/27 03:17:18;;;;;;;11.30;9.52;;;17.20;99.90;;;;;;6221311;23;20008;-92
2021/08/27 03:20:06;;;;;;;14.05;10.82;;;17.10;99.90;;;;;;6221726;23;20020;-92
2021/08/27 03:22:38;;;;;;;15.00;11.77;;;17.20;99.90;;;;;;6248019;23;20004;-92
2021/08/27 03:25:07;;;;;;;16.33;12.45;;;17.10;99.90;;;;;;6247833;23;20001;-92
2021/08/27 03:27:50;;;;;;;15.40;12.00;;;17.10;99.90;;;;;;6250530;23;20023;-92
2021/08/27 03:30:22;;;;;;;17.42;11.40;;;17.10;99.90;;;;;;6220920;23;19996;-94
2021/08/27 03:32:51;;;;;;;15.23;10.37;;;17.10;99.90;;;;;;6221016;23;20015;-92
2021/08/27 03:35:19;;;;;;;15.80;12.32;;;17.10;99.90;;;;;;6246136;23;20015;-92
2021/08/27 03:37:49;;;;;;;16.67;10.95;;;17.00;99.90;;;;;;6246159;22;20058;-92
2021/08/27 03:40:17;;;;;;;17.00;12.45;;;17.00;99.90;;;;;;6221822;23;20004;-92
2021/08/27 03:42:43;;;;;;;17.88;12.57;;;17.00;99.90;;;;;;6246546;23;20004;-92
2021/08/27 03:45:10;;;;;;;17.05;11.63;;;17.00;99.90;;;;;;6248205;23;20008;-92
2021/08/27 03:47:39;;;;;;;16.70;11.02;;;17.00;99.90;;;;;;6248161;23;20000;-92
2021/08/27 03:50:07;;;;;;;16.92;12.93;;;17.00;99.90;;;;;;6248110;23;20008;-92
2021/08/27 03:52:32;;;;;;;19.30;14.73;;;17.00;99.90;;;;;;6221261;23;20012;-92
2021/08/27 03:55:00;;;;;;;18.25;13.65;;;17.00;99.90;;;;;;6221076;23;20402;-91
2021/08/27 03:57:27;;;;;;;17.42;13.65;;;17.00;99.90;;;;;;6220757;23;20019;-92
2021/08/27 03:59:53;;;;;;;14.90;10.98;;;17.00;99.90;;;;;;6247742;23;19996;-92
2021/08/27 04:02:19;;;;;;;24.35;14.30;;;17.00;99.90;;;;;;6220939;23;20011;-92
2021/08/27 04:04:45;;;;;;;18.77;11.88;;;17.00;99.90;;;;;;6247367;23;20067;-91
2021/08/27 04:07:10;;;;;;;17.45;12.45;;;17.00;99.90;;;;;;6220936;23;20024;-92
2021/08/27 04:09:36;;;;;;;17.52;13.02;;;17.00;99.90;;;;;;6220980;23;20039;-92
2021/08/27 04:12:05;;;;;;;14.55;12.25;;;17.00;99.90;;;;;;6221019;23;20074;-92
2021/08/27 04:14:31;;;;;;;18.92;11.82;;;17.10;99.90;;;;;;6246680;23;20011;-92
2021/08/27 04:16:58;;;;;;;14.15;10.20;;;17.10;99.90;;;;;;6221677;23;20000;-93
2021/08/27 04:19:24;;;;;;;16.20;11.32;;;17.10;99.90;;;;;;6221758;23;20007;-92
2021/08/27 04:21:51;;;;;;;17.40;12.43;;;17.10;99.90;;;;;;6247759;23;20012;-94
2021/08/27 04:24:16;;;;;;;18.20;11.90;;;17.20;99.90;;;;;;6221852;23;20008;-92
2021/08/27 04:26:42;;;;;;;16.17;12.13;;;17.20;99.90;;;;;;6221557;23;20035;-91
2021/08/27 04:29:12;;;;;;;18.15;12.80;;;17.20;99.90;;;;;;6221881;23;20365;-92
2021/08/27 04:31:38;;;;;;;17.88;13.50;;;17.20;99.90;;;;;;6220838;23;20296;-92
2021/08/27 04:34:04;;;;;;;16.13;12.85;;;17.20;99.90;;;;;;6221149;23;20008;-92
2021/08/27 04:36:30;;;;;;;18.33;13.50;;;17.20;99.90;;;;;;6247400;22;20063;-92
2021/08/27 04:38:55;;;;;;;15.93;13.55;;;17.30;99.90;;;;;;6221425;23;20000;-92
2021/08/27 04:41:21;;;;;;;16.63;12.50;;;17.30;99.90;;;;;;6220493;23;20000;-92
2021/08/27 04:43:50;;;;;;;15.27;12.32;;;17.30;99.90;;;;;;6220366;23;20005;-92
2021/08/27 04:46:16;;;;;;;15.60;13.55;;;17.40;99.90;;;;;;6221539;23;20020;-92
2021/08/27 04:48:42;;;;;;;16.98;13.48;;;17.40;99.90;;;;;;6220751;23;20420;-92
2021/08/27 04:51:07;;;;;;;15.85;12.25;;;17.40;99.90;;;;;;6220715;23;20004;-92
2021/08/27 04:53:33;;;;;;;14.90;12.77;;;17.40;99.90;;;;;;6246975;23;20030;-92
2021/08/27 04:55:59;;;;;;;18.33;14.10;;;17.40;99.90;;;;;;6221220;23;20301;-92
2021/08/27 04:58:25;;;;;;;17.48;13.93;;;17.40;99.90;;;;;;6220316;23;20008;-92
2021/08/27 05:00:54;;;;;;;17.45;14.32;;;17.40;99.90;;;;;;6220644;23;20008;-93
2021/08/27 05:03:20;;;;;;;16.23;13.98;;;17.40;99.90;;;;;;6219954;23;20008;-92
2021/08/27 05:05:47;;;;;;;21.27;15.45;;;17.40;99.90;;;;;;6220403;23;20051;-91
2021/08/27 05:08:12;;;;;;;20.83;15.63;;;17.30;99.90;;;;;;6220255;23;20092;-91
2021/08/27 05:10:38;;;;;;;20.63;16.05;;;17.30;99.90;;;;;;6220926;23;20135;-90
2021/08/27 05:13:04;;;;;;;18.08;14.35;;;17.30;99.90;;;;;;6248109;23;20008;-90
2021/08/27 05:15:30;;;;;;;19.10;14.35;;;17.30;99.90;;;;;;6221435;23;20423;-92
2021/08/27 05:17:55;;;;;;;22.35;16.58;;;17.30;99.90;;;;;;6221160;23;20050;-92
2021/08/27 05:20:21;;;;;;;18.55;15.52;;;17.30;99.90;;;;;;6220555;23;20435;-92
2021/08/27 05:22:47;;;;;;;18.98;15.30;;;17.30;99.90;;;;;;6220890;23;20011;-92
2021/08/27 05:25:12;;;;;;;21.75;16.50;;;17.40;99.90;;;;;;6246998;23;20339;-92
2021/08/27 05:27:39;;;;;;;20.48;16.42;;;17.30;99.90;;;;;;6220403;23;20000;-92
2021/08/27 05:30:08;;;;;;;21.55;16.27;;;17.40;99.90;;;;;;6220803;23;20015;-92
2021/08/27 05:32:38;;;;;;;18.55;14.48;;;17.40;99.90;;;;;;6219982;23;20008;-92
2021/08/27 05:35:04;;;;;;;21.55;16.63;;;17.40;99.90;;;;;;6247410;23;20004;-92
2021/08/27 05:37:30;;;;;;;19.23;15.68;;;17.40;99.90;;;;;;6220804;23;20371;-92
2021/08/27 05:39:56;;;;;;;25.83;18.00;;;17.50;99.90;;;;;;6220248;23;20005;-92
2021/08/27 05:42:22;;;;;;;22.67;17.75;;;17.50;99.90;;;;;;6247214;23;20007;-93
2021/08/27 05:44:48;;;;;;;23.60;17.90;;;17.50;99.90;;;;;;6216399;23;20078;-93
2021/08/27 05:47:13;;;;;;;24.02;17.85;;;17.50;99.90;;;;;;6247366;23;20036;-92
2021/08/27 05:49:39;;;;;;;20.00;15.88;;;17.50;99.90;;;;;;6222536;23;20008;-95
2021/08/27 05:52:05;;;;;;;22.40;16.40;;;17.50;99.90;;;;;;6220551;23;20008;-92
2021/08/27 05:54:31;;;;;;;21.60;16.08;;;17.50;99.90;;;;;;6219684;23;20035;-92
2021/08/27 05:56:57;;;;;;;22.10;17.08;;;17.50;99.90;;;;;;6221527;23;20003;-92
2021/08/27 05:59:23;;;;;;;17.27;13.82;;;17.60;99.90;;;;;;6222087;23;20018;-92
2021/08/27 06:01:49;;;;;;;20.40;15.32;;;17.60;99.90;;;;;;6222682;23;20125;-92
2021/08/27 06:04:15;;;;;;;26.02;17.10;;;17.70;99.90;;;;;;6223557;23;20000;-92
2021/08/27 06:06:41;;;;;;;22.60;17.15;;;17.80;99.90;;;;;;6251819;23;19992;-92
2021/08/27 06:09:07;;;;;;;22.02;17.63;;;17.80;99.90;;;;;;6227849;23;20085;-92
2021/08/27 06:11:38;;;;;;;22.65;15.52;;;17.90;99.90;;;;;;6221812;23;20000;-92
2021/08/27 06:14:07;;;;;;;18.40;15.27;;;17.90;99.90;;;;;;6222470;23;20005;-92
2021/08/27 06:16:33;;;;;;;17.00;14.73;;;17.90;99.90;;;;;;6248126;23;19996;-92
2021/08/27 06:19:03;;;;;;;19.60;14.15;;;17.90;99.90;;;;;;6221424;23;20009;-92
2021/08/27 06:21:29;;;;;;;19.83;15.07;;;18.00;99.90;;;;;;6220857;23;20331;-92
2021/08/27 06:23:55;;;;;;;20.55;16.17;;;18.00;99.90;;;;;;6220673;23;20028;-92
2021/08/27 06:26:20;;;;;;;20.67;15.15;;;17.90;99.90;;;;;;6249317;23;20053;-92
2021/08/27 06:28:46;;;;;;;17.05;14.00;;;17.90;99.90;;;;;;6221282;23;20000;-92
2021/08/27 06:31:12;;;;;;;20.75;15.00;;;17.90;99.90;;;;;;6221228;23;20069;-92
2021/08/27 06:33:38;;;;;;;20.10;15.05;;;17.90;99.90;;;;;;6247878;23;19996;-92
2021/08/27 06:36:04;;;;;;;20.90;14.82;;;18.00;99.90;;;;;;6221632;22;20348;-92
2021/08/27 06:38:30;;;;;;;19.77;14.35;;;18.00;99.90;;;;;;6248334;23;20002;-92
2021/08/27 06:41:02;;;;;;;19.50;13.88;;;18.10;99.90;;;;;;6221700;23;20079;-92
2021/08/27 06:43:30;;;;;;;22.13;16.75;;;18.20;99.90;;;;;;6221001;23;20012;-92
2021/08/27 06:46:01;;;;;;;25.08;18.38;;;18.20;99.90;;;;;;6221687;23;20074;-91
2021/08/27 06:48:27;;;;;;;19.85;15.60;;;18.10;99.90;;;;;;6216217;23;20004;-91
2021/08/27 06:50:53;;;;;;;18.42;14.02;;;18.10;99.90;;;;;;6243549;23;20091;-91
2021/08/27 06:53:19;;;;;;;23.20;16.25;;;18.10;99.90;;;;;;6248713;23;20078;-91
2021/08/27 06:55:45;;;;;;;17.50;14.35;;;18.10;99.90;;;;;;6216712;23;20012;-91
2021/08/27 06:58:11;;;;;;;22.33;14.65;;;18.10;99.90;;;;;;6216446;23;20009;-91
2021/08/27 07:00:37;;;;;;;20.30;16.25;;;18.10;99.90;;;;;;6242199;23;20004;-91
2021/08/27 07:03:03;;;;;;;24.85;16.65;;;18.10;99.90;;;;;;6246655;23;20011;-91
2021/08/27 07:05:29;;;;;;;19.60;14.82;;;18.10;99.90;;;;;;6249702;23;20000;-92
2021/08/27 07:07:55;;;;;;;21.60;15.82;;;18.10;99.90;;;;;;6218367;23;20059;-92
2021/08/27 07:10:53;;;;;;;21.88;15.98;;;18.10;99.90;;;;;;6252557;23;20000;-93
2021/08/27 07:13:19;;;;;;;24.10;18.67;;;18.10;99.90;;;;;;6171888;23;20310;-92
2021/08/27 07:15:45;;;;;;;23.80;18.35;;;18.00;99.90;;;;;;6248416;23;20055;-93
2021/08/27 07:18:11;;;;;;;26.58;18.77;;;18.00;99.90;;;;;;6219019;23;20079;-93
2021/08/27 07:20:37;;;;;;;24.65;20.08;;;17.90;99.90;;;;;;6220118;23;20091;-92
2021/08/27 07:23:06;;;;;;;23.58;18.10;;;17.90;99.90;;;;;;6253624;23;20011;-92
2021/08/27 07:25:32;;;;;;;25.25;20.08;;;17.90;99.90;;;;;;6255696;23;20026;-92
2021/08/27 07:27:58;;;;;;;28.92;21.05;;;17.90;99.90;;;;;;6252160;23;20007;-92
2021/08/27 07:30:24;;;;;;;29.73;21.75;;;17.80;99.90;;;;;;6218357;23;20001;-93
2021/08/27 07:32:50;;;;;;;29.15;22.67;;;17.80;99.90;;;;;;6248199;23;20004;-94
2021/08/27 07:35:15;;;;;;;27.52;21.10;;;17.80;99.90;;;;;;6222625;23;20009;-89
2021/08/27 07:37:42;;;;;;;25.17;19.60;;;17.80;99.90;;;;;;6246544;22;20435;-92
2021/08/27 07:40:11;;;;;;;28.20;20.23;;;17.80;99.90;;;;;;6233763;23;19996;-88
2021/08/27 07:42:37;;;;;;;25.77;20.40;;;17.80;99.90;;;;;;6213806;23;20052;-87
2021/08/27 07:45:03;;;;;;;28.02;21.75;;;17.90;99.90;;;;;;6219182;23;20024;-86
2021/08/27 07:47:29;;;;;;;26.25;21.17;;;17.90;99.90;;;;;;6219618;23;20072;-89
2021/08/27 07:49:55;;;;;;;29.55;21.70;;;18.00;99.90;;;;;;6220906;23;20012;-91
2021/08/27 07:52:21;;;;;;;28.30;21.27;;;18.00;99.90;;;;;;6220333;23;20004;-91
2021/08/27 07:55:07;;;;;;;24.95;19.63;;;18.10;99.90;;;;;;6247526;23;20008;-93
2021/08/27 07:57:38;;;;;;;24.42;19.23;;;18.10;99.90;;;;;;6220508;23;20019;-91
2021/08/27 08:00:05;;;;;;;23.38;18.73;;;18.20;99.90;;;;;;6249213;23;20022;-89
2021/08/27 08:02:31;;;;;;;25.63;20.80;;;18.30;99.90;;;;;;6247334;23;20028;-89
2021/08/27 08:04:56;;;;;;;22.67;18.85;;;18.40;99.90;;;;;;6217805;23;20012;-90
2021/08/27 08:07:22;;;;;;;26.00;18.42;;;18.50;99.90;;;;;;6219405;23;20009;-90
2021/08/27 08:09:48;;;;;;;23.02;17.52;;;18.50;99.90;;;;;;6226231;23;19988;-90
2021/08/27 08:12:13;;;;;;;20.40;17.55;;;18.60;99.90;;;;;;6218836;23;20061;-90
2021/08/27 08:14:39;;;;;;;23.77;19.70;;;18.70;99.90;;;;;;6219398;23;20454;-90
2021/08/27 08:17:05;;;;;;;23.58;17.70;;;18.70;99.90;;;;;;6222525;23;20004;-91
2021/08/27 08:19:31;;;;;;;24.80;18.00;;;18.70;99.90;;;;;;6234611;23;20416;-91
2021/08/27 08:21:57;;;;;;;22.35;18.13;;;18.70;99.90;;;;;;6235468;23;20000;-91
2021/08/27 08:24:22;;;;;;;24.42;19.38;;;18.70;99.90;;;;;;6256777;23;20019;-91
2021/08/27 08:26:48;;;;;;;25.10;19.02;;;18.70;99.90;;;;;;6221481;23;20007;-91
2021/08/27 08:29:14;;;;;;;22.88;19.10;;;18.70;99.90;;;;;;6221804;23;20004;-91
2021/08/27 08:31:40;;;;;;;25.55;18.85;;;18.70;99.90;;;;;;6226318;23;20000;-90
2021/08/27 08:34:06;;;;;;;22.45;18.25;;;18.70;99.90;;;;;;6219839;23;20012;-90
2021/08/27 08:36:31;;;;;;;22.50;19.00;;;18.70;99.90;;;;;;6218729;23;20408;-90
2021/08/27 08:38:57;;;;;;;22.50;17.13;;;18.70;99.90;;;;;;6220386;23;20000;-90
2021/08/27 08:41:23;;;;;;;20.90;17.52;;;18.70;99.90;;;;;;6246127;23;20246;-91
2021/08/27 08:43:55;;;;;;;24.70;19.60;;;18.80;99.90;;;;;;6247523;23;20276;-91
2021/08/27 08:46:42;;;;;;;22.55;18.08;;;18.80;99.90;;;;;;6220128;23;20371;-92
2021/08/27 08:49:10;;;;;;;23.23;18.00;;;18.80;99.90;;;;;;6233864;23;20003;-89
2021/08/27 08:51:37;;;;;;;22.38;17.50;;;18.70;99.90;;;;;;6246247;23;20128;-90
2021/08/27 08:54:03;;;;;;;23.23;18.77;;;18.80;99.90;;;;;;6218649;23;20016;-90
2021/08/27 08:56:29;;;;;;;20.10;16.27;;;18.90;99.90;;;;;;6217963;23;20012;-89
2021/08/27 08:58:58;;;;;;;21.40;16.52;;;19.00;99.90;;;;;;6218672;23;20004;-89
2021/08/27 09:01:24;;;;;;;19.65;16.88;;;19.10;99.90;;;;;;6246917;23;20000;-89
2021/08/27 09:03:50;;;;;;;19.02;16.48;;;19.20;99.90;;;;;;6219954;23;20020;-88
2021/08/27 09:06:16;;;;;;;16.77;14.77;;;19.30;99.90;;;;;;6220221;23;20007;-88
2021/08/27 09:08:47;;;;;;;18.40;15.98;;;19.50;99.90;;;;;;6218632;23;20012;-88
2021/08/27 09:11:21;;;;;;;16.45;14.60;;;19.70;99.30;;;;;;6218733;23;20083;-88
2021/08/27 09:13:52;;;;;;;16.80;14.60;;;19.80;98.90;;;;;;6245978;23;20011;-89
2021/08/27 09:16:21;;;;;;;16.85;14.85;;;19.90;98.40;;;;;;6219033;23;20005;-89
2021/08/27 09:18:49;;;;;;;15.07;13.48;;;20.00;98.20;;;;;;6245113;23;20080;-89
2021/08/27 09:21:45;;;;;;;14.85;12.75;;;20.10;97.70;;;;;;6243810;23;20008;-89
2021/08/27 09:24:17;;;;;;;13.55;11.70;;;20.20;97.00;;;;;;6245777;23;19998;-88
2021/08/27 09:26:48;;;;;;;12.57;11.27;;;20.20;97.40;;;;;;6218530;23;20012;-90
2021/08/27 09:29:33;;;;;;;13.88;11.57;;;20.30;97.30;;;;;;6218421;23;20037;-89
2021/08/27 09:31:59;;;;;;;12.52;11.13;;;20.40;96.40;;;;;;6220502;23;20010;-89
2021/08/27 09:34:29;;;;;;;12.50;11.18;;;20.50;96.60;;;;;;6222681;23;20023;-89
2021/08/27 09:36:58;;;;;;;13.85;10.88;;;20.70;96.40;;;;;;6248865;22;20057;-90
2021/08/27 09:39:33;;;;;;;12.55;10.57;;;20.80;95.80;;;;;;6220543;23;20175;-90
2021/08/27 09:42:00;;;;;;;12.70;10.32;;;20.90;95.80;;;;;;6221530;23;20448;-90
2021/08/27 09:44:26;;;;;;;14.50;12.35;;;21.10;95.30;;;;;;6219468;23;20462;-88
2021/08/27 09:46:52;;;;;;;14.07;11.63;;;21.10;94.80;;;;;;6247376;23;20008;-88
2021/08/27 09:49:28;;;;;;;11.85;10.55;;;21.10;94.30;;;;;;6219798;23;20004;-86
2021/08/27 09:51:55;;;;;;;14.48;11.85;;;21.20;94.60;;;;;;6245139;23;20492;-88
2021/08/27 09:54:27;;;;;;;12.15;10.52;;;21.30;94.50;;;;;;6245320;23;20000;-88
2021/08/27 09:56:55;;;;;;;11.88;10.25;;;21.30;94.20;;;;;;6218947;23;20288;-88
2021/08/27 09:59:43;;;;;;;13.38;11.65;;;21.40;94.10;;;;;;6218781;23;20011;-89
2021/08/27 10:02:13;;;;;;;15.10;13.60;;;21.50;92.50;;;;;;6219607;23;20066;-88
2021/08/27 10:05:01;;;;;;;11.52;10.32;;;21.50;93.70;;;;;;6244057;23;20030;-87
2021/08/27 10:07:42;;;;;;;12.07;10.77;;;21.60;93.70;;;;;;6246337;23;20019;-87
2021/08/27 10:10:13;;;;;;;11.20;9.60;;;21.60;93.40;;;;;;6246630;23;20055;-88
2021/08/27 10:12:41;;;;;;;11.55;9.90;;;21.70;93.30;;;;;;6248589;23;20006;-88
2021/08/27 10:15:09;;;;;;;11.93;10.50;;;21.80;93.10;;;;;;6221189;23;20062;-88
2021/08/27 10:17:37;;;;;;;10.63;9.15;;;21.90;93.00;;;;;;6244287;23;20008;-88
2021/08/27 10:20:05;;;;;;;11.57;9.73;;;22.00;92.80;;;;;;6220730;23;20432;-88
2021/08/27 10:22:31;;;;;;;11.45;9.48;;;22.10;92.70;;;;;;6220507;23;20016;-89
2021/08/27 10:24:57;;;;;;;9.75;8.27;;;22.30;92.60;;;;;;6221118;23;20004;-87
2021/08/27 10:27:23;;;;;;;10.90;8.93;;;22.60;92.30;;;;;;6247475;23;20028;-88
2021/08/27 10:29:55;;;;;;;9.93;8.88;;;22.80;91.80;;;;;;6220576;23;20004;-87
2021/08/27 10:32:39;;;;;;;9.48;8.18;;;23.00;91.10;;;;;;6220753;23;20364;-89
2021/08/27 10:35:09;;;;;;;8.88;7.82;;;23.20;90.80;;;;;;6248280;23;20012;-88
2021/08/27 10:37:49;;;;;;;10.82;8.30;;;23.40;90.60;;;;;;6219967;23;20008;-88
2021/08/27 10:40:25;;;;;;;8.90;7.63;;;23.60;89.00;;;;;;6248560;23;20007;-88
2021/08/27 10:43:00;;;;;;;11.43;9.85;;;23.70;85.00;;;;;;6220891;23;20011;-88
2021/08/27 10:45:32;;;;;;;13.75;9.80;;;23.70;87.20;;;;;;6220112;23;20494;-88
2021/08/27 10:48:17;;;;;;;10.45;9.35;;;23.70;83.80;;;;;;6247243;23;20000;-87
2021/08/27 10:50:46;;;;;;;11.35;8.93;;;23.60;83.00;;;;;;6246783;23;19996;-87
2021/08/27 10:53:37;;;;;;;10.52;9.43;;;23.50;85.50;;;;;;6220027;23;20004;-88
2021/08/27 10:56:29;;;;;;;8.98;8.07;;;23.40;81.20;;;;;;6219821;23;20012;-88
2021/08/27 10:58:55;;;;;;;8.70;7.75;;;23.40;81.90;;;;;;6219339;23;20018;-88
2021/08/27 11:01:31;;;;;;;10.65;8.57;;;23.30;83.60;;;;;;6247359;23;20034;-88
2021/08/27 11:04:25;;;;;;;8.90;8.00;;;23.20;83.30;;;;;;6246982;23;20004;-88
2021/08/27 11:06:53;;;;;;;10.10;8.95;;;23.20;82.50;;;;;;6219477;23;20084;-88
2021/08/27 11:09:28;;;;;;;10.05;8.45;;;23.00;84.00;;;;;;6246272;23;20423;-88
2021/08/27 11:12:15;;;;;;;8.80;7.90;;;23.00;84.70;;;;;;6219616;23;20004;-88
2021/08/27 11:14:46;;;;;;;8.88;7.97;;;23.10;83.30;;;;;;6219825;23;20147;-88
2021/08/27 11:17:13;;;;;;;8.05;7.25;;;23.10;84.60;;;;;;6220126;23;20026;-87
2021/08/27 11:19:55;;;;;;;8.70;7.72;;;23.20;84.40;;;;;;6247366;23;20018;-88
2021/08/27 11:22:30;;;;;;;8.10;7.30;;;23.30;83.20;;;;;;6220249;23;20439;-89
2021/08/27 11:25:01;;;;;;;7.57;6.70;;;23.40;83.10;;;;;;6246169;23;20000;-88
2021/08/27 11:27:30;;;;;;;7.85;7.05;;;23.50;83.10;;;;;;6246701;23;20420;-88
2021/08/27 11:29:59;;;;;;;6.78;6.00;;;23.80;83.10;;;;;;6218657;23;20015;-88
2021/08/27 11:32:25;;;;;;;7.18;6.47;;;24.00;82.50;;;;;;6219199;23;20091;-87
2021/08/27 11:34:58;;;;;;;8.90;7.97;;;24.20;81.40;;;;;;6219317;23;20004;-88
2021/08/27 11:37:35;;;;;;;;;;;24.40;81.20;;;;;;6219767;23;20019;-87
2021/08/27 11:40:03;;;;;;;7.75;6.00;;;24.60;80.90;;;;;;6220157;23;19900;-87
2021/08/27 11:42:29;;;;;;;7.22;6.53;;;24.80;80.60;;;;;;6220261;23;20008;-87
2021/08/27 11:45:15;;;;;;;6.75;6.05;;;25.00;78.90;;;;;;6218045;23;20004;-87
2021/08/27 11:47:41;;;;;;;7.43;6.72;;;25.10;77.80;;;;;;6217447;23;20451;-87
2021/08/27 11:50:12;;;;;;;7.95;7.15;;;25.30;77.70;;;;;;6217672;23;19996;-87
2021/08/27 11:52:40;;;;;;;7.30;6.60;;;25.30;75.90;;;;;;6242157;23;20054;-87
2021/08/27 11:55:12;;;;;;;11.13;8.07;;;25.30;76.40;;;;;;6216575;23;20012;-87
2021/08/27 11:57:57;;;;;;;8.60;7.70;;;25.20;75.20;;;;;;6241869;23;20031;-87
2021/08/27 12:00:37;;;;;;;7.68;6.85;;;25.10;75.50;;;;;;6243706;23;20008;-88
2021/08/27 12:03:05;;;;;;;7.38;6.55;;;25.10;75.80;;;;;;6244541;23;20075;-86
2021/08/27 12:05:31;;;;;;;8.65;7.75;;;25.30;76.00;;;;;;6218627;23;20057;-87
2021/08/27 12:07:59;;;;;;;8.13;7.32;;;25.50;75.20;;;;;;6244617;23;20015;-88
2021/08/27 12:10:27;;;;;;;8.43;7.50;;;25.50;75.00;;;;;;6221655;23;20028;-86
2021/08/27 12:12:54;;;;;;;8.48;7.68;;;25.50;74.70;;;;;;6246054;23;20063;-87
2021/08/27 12:15:43;;;;;;;9.35;8.07;;;25.60;74.00;;;;;;6246321;23;20363;-88
2021/08/27 12:18:14;;;;;;;8.80;7.90;;;25.50;72.80;;;;;;6246014;23;20006;-88
2021/08/27 12:20:42;;;;;;;8.52;7.60;;;25.40;73.50;;;;;;6245787;23;20000;-88
2021/08/27 12:23:16;;;;;;;8.20;7.30;;;25.40;73.90;;;;;;6244567;23;20004;-87
2021/08/27 12:25:47;;;;;;;9.40;8.35;;;25.40;74.60;;;;;;6243996;23;20011;-88
2021/08/27 12:28:17;;;;;;;8.95;7.57;;;25.40;73.50;;;;;;6244540;23;20039;-87
2021/08/27 12:30:47;;;;;;;10.20;8.98;;;25.40;74.00;;;;;;6245672;23;19997;-88
2021/08/27 12:33:14;;;;;;;9.45;8.55;;;25.50;73.00;;;;;;6219081;23;20087;-88
2021/08/27 12:35:40;;;;;;;10.35;9.35;;;25.40;72.00;;;;;;6246690;23;20000;-88
2021/08/27 12:38:06;;;;;;;9.32;8.38;;;25.10;72.00;;;;;;6245651;22;20054;-88
2021/08/27 12:40:33;;;;;;;10.02;8.90;;;24.90;72.60;;;;;;6219062;23;20008;-88
2021/08/27 12:43:04;;;;;;;11.27;9.15;;;24.80;73.40;;;;;;6244218;23;20138;-88